Low Ackworth, United Kingdom
Current Conditions -  °F | °C
As of 1:50 PM on Friday 24 Oct 2014 (Local Time) from EGCN Reporting Station
Broken Clouds Broken Clouds  
Wind Chill: 59°   Ceiling: 3500
Heat Index: 59°   Visibility: 6mi
Dew Point: 52°   Wind: 9mph
Humidity: 77%   Direction: 230°SW
Pressure: 29.88"   Gusts: NA
Location:  53.65°N, 1.32°W
Report Text: EGCN 241250Z 23008KT 9999 FEW012 SCT029 BKN035 15/11 Q1012
Loading
Personal Weather Stations






























Interactive Weather Map
Tropical Storm Tracking
New forecast layout! Learn more

10-Day Weather Forecast

Advertisements
Track Severe Weather on mobile